Google Maps JavaScript API Example
Pilot Flight Report # 92900 Submitted by : AST775 on 2019-04-15
Date: 2019-04-15Aircraft: Boeing 737 MAX7
Flight No.: AST30036Distance (Nm): 473.21
Departure: SGES - Guarani IntlDestination: SBGR - Guarulhos International
 TimeFuelWeightSpeeds  
Out (Taxi)1220Z22757 lbs111860 lbs Flight RulesVFR
Off (Takeoff)1221Z 111734 lbs185 ktsFlight Level29500
On (Landing)1329Z 105786 lbs137 ktsVSTD-198 ft/min
In (Ramp)1329Z16681 lbs105785 lbs ZFW89100 lbs
Flight1.10  -  1:085949 lbs  Pax0
Block1.15  -  1:096076 lbs  Cargo0
Departure WeatherSWNH 141220Z 00000KT 45SM BKN287 25/22 A2991
Destination WeatherSBGR 141329Z 00000KT 46SM FEW031 BKN035 18/18 A3012
Flight CommentsLeg 13 - SGES - SBGR